Terminal Aerodrome Forecast
Issued by NWS Lake Charles, LA

Home | Current Version | Previous Version | Text Only | Print | Product List | Glossary On
Versions: 1 2 3 4 5 6 7 8 9 10 11 12 13
373
FTUS44 KLCH 251720
TAFBPT
TAF
KBPT 251720Z 2518/2618 13009KT P6SM VCTS SCT040CB BKN080
      TEMPO 2518/2522 VRB15G25KT 3SM SHRA SCT025 BKN040
     FM260100 VRB03KT P6SM SCT050 BKN250=

USA.gov is the U.S. government's official web portal to all federal, state and local government web resources and services.